sensor_id;sensor_type;location;lat;lon;timestamp;pressure;altitude;pressure_sealevel;temperature;humidity
70338;BME280;57757;53.198;19.646;2023-01-27T00:01:04;100572.48;;;2.04;77.07
70338;BME280;57757;53.198;19.646;2023-01-27T00:03:32;100575.74;;;2.04;77.07
70338;BME280;57757;53.198;19.646;2023-01-27T00:06:00;100573.52;;;2.04;77.19
70338;BME280;57757;53.198;19.646;2023-01-27T00:08:28;100570.63;;;2.05;77.11
70338;BME280;57757;53.198;19.646;2023-01-27T00:10:57;100572.85;;;2.05;77.08
70338;BME280;57757;53.198;19.646;2023-01-27T00:13:41;100573.38;;;2.05;77.11
70338;BME280;57757;53.198;19.646;2023-01-27T00:16:09;100570.14;;;2.06;77.15
70338;BME280;57757;53.198;19.646;2023-01-27T00:18:36;100570.65;;;2.07;77.13
70338;BME280;57757;53.198;19.646;2023-01-27T00:21:04;100569.11;;;2.07;77.11
70338;BME280;57757;53.198;19.646;2023-01-27T00:23:47;100571.88;;;2.08;77.05
70338;BME280;57757;53.198;19.646;2023-01-27T00:26:30;100570.48;;;2.08;77.12
70338;BME280;57757;53.198;19.646;2023-01-27T00:28:58;100570.48;;;2.07;77.28
70338;BME280;57757;53.198;19.646;2023-01-27T00:31:26;100571.48;;;2.05;77.17
70338;BME280;57757;53.198;19.646;2023-01-27T00:34:09;100576.09;;;2.04;77.21
70338;BME280;57757;53.198;19.646;2023-01-27T00:36:39;100580.21;;;2.05;77.23
70338;BME280;57757;53.198;19.646;2023-01-27T00:39:09;100579.02;;;2.03;77.17
70338;BME280;57757;53.198;19.646;2023-01-27T00:41:38;100577.77;;;2.02;77.26
70338;BME280;57757;53.198;19.646;2023-01-27T00:44:06;100576.59;;;2.02;77.36
70338;BME280;57757;53.198;19.646;2023-01-27T00:46:40;100577.09;;;2.02;77.27
70338;BME280;57757;53.198;19.646;2023-01-27T00:49:10;100576.78;;;2.03;77.36
70338;BME280;57757;53.198;19.646;2023-01-27T00:51:40;100574.39;;;2.03;77.30
70338;BME280;57757;53.198;19.646;2023-01-27T00:54:08;100573.17;;;2.04;77.28
70338;BME280;57757;53.198;19.646;2023-01-27T00:56:36;100576.43;;;2.04;77.34
70338;BME280;57757;53.198;19.646;2023-01-27T00:59:04;100580.90;;;2.03;77.27
70338;BME280;57757;53.198;19.646;2023-01-27T01:01:33;100585.70;;;2.03;77.31
70338;BME280;57757;53.198;19.646;2023-01-27T01:04:01;100584.16;;;2.03;77.34
70338;BME280;57757;53.198;19.646;2023-01-27T01:06:29;100583.77;;;2.02;77.28
70338;BME280;57757;53.198;19.646;2023-01-27T01:08:56;100580.83;;;2.00;77.29
70338;BME280;57757;53.198;19.646;2023-01-27T01:11:24;100587.16;;;2.00;77.29
70338;BME280;57757;53.198;19.646;2023-01-27T01:13:52;100587.51;;;2.00;77.39
70338;BME280;57757;53.198;19.646;2023-01-27T01:16:23;100591.11;;;2.00;77.37
70338;BME280;57757;53.198;19.646;2023-01-27T01:18:52;100591.08;;;1.98;77.33
70338;BME280;57757;53.198;19.646;2023-01-27T01:21:20;100588.13;;;1.96;77.19
70338;BME280;57757;53.198;19.646;2023-01-27T01:23:47;100584.87;;;1.96;77.24
70338;BME280;57757;53.198;19.646;2023-01-27T01:26:16;100584.36;;;1.97;77.34
70338;BME280;57757;53.198;19.646;2023-01-27T01:28:44;100580.79;;;1.98;77.33
70338;BME280;57757;53.198;19.646;2023-01-27T01:31:15;100581.48;;;1.98;77.35
70338;BME280;57757;53.198;19.646;2023-01-27T01:33:45;100584.23;;;1.98;77.38
70338;BME280;57757;53.198;19.646;2023-01-27T01:36:16;100585.58;;;1.97;77.37
70338;BME280;57757;53.198;19.646;2023-01-27T01:38:45;100591.22;;;1.96;77.41
70338;BME280;57757;53.198;19.646;2023-01-27T01:41:15;100590.35;;;1.96;77.39
70338;BME280;57757;53.198;19.646;2023-01-27T01:43:44;100589.67;;;1.96;77.29
70338;BME280;57757;53.198;19.646;2023-01-27T01:46:12;100590.52;;;1.96;77.38
70338;BME280;57757;53.198;19.646;2023-01-27T01:48:42;100594.64;;;1.96;77.42
70338;BME280;57757;53.198;19.646;2023-01-27T01:59:16;100585.25;;;1.98;77.36
70338;BME280;57757;53.198;19.646;2023-01-27T02:01:45;100587.95;;;1.96;77.33
70338;BME280;57757;53.198;19.646;2023-01-27T02:04:17;100586.92;;;1.96;77.35
70338;BME280;57757;53.198;19.646;2023-01-27T02:06:53;100580.42;;;1.97;77.32
70338;BME280;57757;53.198;19.646;2023-01-27T02:09:23;100577.70;;;1.98;77.44
70338;BME280;57757;53.198;19.646;2023-01-27T02:11:51;100580.14;;;1.99;77.38
70338;BME280;57757;53.198;19.646;2023-01-27T02:14:19;100577.38;;;1.99;77.31
70338;BME280;57757;53.198;19.646;2023-01-27T02:16:47;100580.14;;;1.99;77.29
70338;BME280;57757;53.198;19.646;2023-01-27T02:19:26;100582.70;;;1.99;77.25
70338;BME280;57757;53.198;19.646;2023-01-27T02:22:00;100580.30;;;2.00;77.32
70338;BME280;57757;53.198;19.646;2023-01-27T02:24:38;100578.77;;;2.00;77.34
70338;BME280;57757;53.198;19.646;2023-01-27T02:27:10;100585.27;;;1.98;77.37
70338;BME280;57757;53.198;19.646;2023-01-27T02:29:40;100589.20;;;1.98;77.44
70338;BME280;57757;53.198;19.646;2023-01-27T02:32:21;100598.15;;;1.99;77.37
70338;BME280;57757;53.198;19.646;2023-01-27T02:34:49;100601.77;;;2.01;77.35
70338;BME280;57757;53.198;19.646;2023-01-27T02:37:17;100600.77;;;2.02;77.27
70338;BME280;57757;53.198;19.646;2023-01-27T02:39:49;100607.15;;;2.03;77.36
70338;BME280;57757;53.198;19.646;2023-01-27T02:42:19;100607.83;;;2.04;77.35
70338;BME280;57757;53.198;19.646;2023-01-27T02:44:46;100613.67;;;2.05;77.36
70338;BME280;57757;53.198;19.646;2023-01-27T02:47:14;100611.48;;;2.07;77.46
70338;BME280;57757;53.198;19.646;2023-01-27T02:49:42;100613.04;;;2.08;77.28
70338;BME280;57757;53.198;19.646;2023-01-27T02:52:09;100611.81;;;2.06;77.26
70338;BME280;57757;53.198;19.646;2023-01-27T02:54:37;100611.98;;;2.05;77.25
70338;BME280;57757;53.198;19.646;2023-01-27T02:57:05;100612.33;;;2.06;77.26
70338;BME280;57757;53.198;19.646;2023-01-27T02:59:33;100617.30;;;2.06;77.37
70338;BME280;57757;53.198;19.646;2023-01-27T03:02:01;100619.52;;;2.06;77.30
70338;BME280;57757;53.198;19.646;2023-01-27T03:04:28;100620.58;;;2.07;77.27
70338;BME280;57757;53.198;19.646;2023-01-27T03:06:56;100621.92;;;2.05;77.32
70338;BME280;57757;53.198;19.646;2023-01-27T03:09:24;100617.77;;;2.04;77.13
70338;BME280;57757;53.198;19.646;2023-01-27T03:11:52;100622.19;;;2.01;77.12
70338;BME280;57757;53.198;19.646;2023-01-27T03:14:35;100626.27;;;2.00;77.19
70338;BME280;57757;53.198;19.646;2023-01-27T03:17:19;100626.11;;;2.00;77.30
70338;BME280;57757;53.198;19.646;2023-01-27T03:20:02;100627.82;;;1.99;77.31
70338;BME280;57757;53.198;19.646;2023-01-27T03:22:29;100630.23;;;1.99;77.31
70338;BME280;57757;53.198;19.646;2023-01-27T03:24:57;100628.66;;;1.98;77.19
70338;BME280;57757;53.198;19.646;2023-01-27T03:27:25;100628.16;;;1.99;77.30
70338;BME280;57757;53.198;19.646;2023-01-27T03:29:52;100624.89;;;1.98;77.20
70338;BME280;57757;53.198;19.646;2023-01-27T03:32:25;100627.64;;;1.98;77.24
70338;BME280;57757;53.198;19.646;2023-01-27T03:34:53;100629.86;;;1.99;77.30
70338;BME280;57757;53.198;19.646;2023-01-27T03:37:24;100628.65;;;1.98;77.16
70338;BME280;57757;53.198;19.646;2023-01-27T03:40:09;100629.46;;;1.96;77.19
70338;BME280;57757;53.198;19.646;2023-01-27T03:42:52;100627.95;;;1.97;77.39
70338;BME280;57757;53.198;19.646;2023-01-27T03:45:38;100627.46;;;1.99;77.48
70338;BME280;57757;53.198;19.646;2023-01-27T03:48:21;100626.11;;;2.00;77.51
70338;BME280;57757;53.198;19.646;2023-01-27T03:50:49;100632.83;;;2.01;77.42
70338;BME280;57757;53.198;19.646;2023-01-27T03:53:19;100631.14;;;2.02;77.41
70338;BME280;57757;53.198;19.646;2023-01-27T03:55:47;100634.41;;;2.03;77.31
70338;BME280;57757;53.198;19.646;2023-01-27T03:58:27;100628.59;;;2.03;77.28
70338;BME280;57757;53.198;19.646;2023-01-27T04:00:57;100628.92;;;2.03;77.26
70338;BME280;57757;53.198;19.646;2023-01-27T04:03:29;100629.44;;;2.04;77.22
70338;BME280;57757;53.198;19.646;2023-01-27T04:06:18;100629.63;;;2.05;77.19
70338;BME280;57757;53.198;19.646;2023-01-27T04:09:04;100624.45;;;2.03;77.11
70338;BME280;57757;53.198;19.646;2023-01-27T04:11:32;100621.67;;;2.01;77.02
70338;BME280;57757;53.198;19.646;2023-01-27T04:14:16;100627.33;;;2.01;77.26
70338;BME280;57757;53.198;19.646;2023-01-27T04:16:44;100630.94;;;2.01;77.19
70338;BME280;57757;53.198;19.646;2023-01-27T04:19:12;100632.48;;;2.01;77.16
70338;BME280;57757;53.198;19.646;2023-01-27T04:21:40;100639.34;;;2.01;77.14
70338;BME280;57757;53.198;19.646;2023-01-27T04:24:11;100643.95;;;2.00;77.01
70338;BME280;57757;53.198;19.646;2023-01-27T04:27:04;100650.61;;;1.98;77.09
70338;BME280;57757;53.198;19.646;2023-01-27T04:29:34;100653.30;;;1.96;77.02
70338;BME280;57757;53.198;19.646;2023-01-27T04:32:04;100651.92;;;1.96;77.09
70338;BME280;57757;53.198;19.646;2023-01-27T04:34:36;100651.91;;;1.94;76.98
70338;BME280;57757;53.198;19.646;2023-01-27T04:37:06;100651.04;;;1.93;77.06
70338;BME280;57757;53.198;19.646;2023-01-27T04:39:34;100655.31;;;1.93;77.04
70338;BME280;57757;53.198;19.646;2023-01-27T04:42:03;100658.94;;;1.93;77.10
70338;BME280;57757;53.198;19.646;2023-01-27T04:44:30;100654.14;;;1.94;77.11
70338;BME280;57757;53.198;19.646;2023-01-27T04:46:58;100655.83;;;1.93;76.99
70338;BME280;57757;53.198;19.646;2023-01-27T04:49:26;100658.55;;;1.91;76.97
70338;BME280;57757;53.198;19.646;2023-01-27T04:51:54;100664.04;;;1.91;77.02
70338;BME280;57757;53.198;19.646;2023-01-27T04:54:22;100664.71;;;1.92;77.02
70338;BME280;57757;53.198;19.646;2023-01-27T04:57:00;100668.33;;;1.91;76.99
70338;BME280;57757;53.198;19.646;2023-01-27T04:59:30;100675.19;;;1.92;77.06
70338;BME280;57757;53.198;19.646;2023-01-27T05:01:57;100678.31;;;1.94;77.10
70338;BME280;57757;53.198;19.646;2023-01-27T05:04:26;100678.16;;;1.94;77.12
70338;BME280;57757;53.198;19.646;2023-01-27T05:06:54;100681.27;;;1.95;77.09
70338;BME280;57757;53.198;19.646;2023-01-27T05:09:21;100683.15;;;1.96;77.08
70338;BME280;57757;53.198;19.646;2023-01-27T05:11:49;100685.38;;;1.96;77.16
70338;BME280;57757;53.198;19.646;2023-01-27T05:14:17;100693.27;;;1.95;77.19
70338;BME280;57757;53.198;19.646;2023-01-27T05:16:44;100694.11;;;1.95;77.08
70338;BME280;57757;53.198;19.646;2023-01-27T05:19:12;100693.60;;;1.95;77.23
70338;BME280;57757;53.198;19.646;2023-01-27T05:21:40;100694.13;;;1.95;77.27
70338;BME280;57757;53.198;19.646;2023-01-27T05:24:10;100695.30;;;1.94;77.21
70338;BME280;57757;53.198;19.646;2023-01-27T05:26:38;100700.77;;;1.93;77.12
70338;BME280;57757;53.198;19.646;2023-01-27T05:29:05;100700.60;;;1.94;77.27
70338;BME280;57757;53.198;19.646;2023-01-27T05:31:33;100704.72;;;1.93;77.27
70338;BME280;57757;53.198;19.646;2023-01-27T05:34:01;100710.53;;;1.93;77.27
70338;BME280;57757;53.198;19.646;2023-01-27T05:36:29;100710.86;;;1.92;77.20
70338;BME280;57757;53.198;19.646;2023-01-27T05:38:57;100712.23;;;1.92;77.31
70338;BME280;57757;53.198;19.646;2023-01-27T05:41:27;100716.38;;;1.93;77.32
70338;BME280;57757;53.198;19.646;2023-01-27T05:43:57;100719.46;;;1.93;77.29
70338;BME280;57757;53.198;19.646;2023-01-27T05:46:27;100723.07;;;1.93;77.33
70338;BME280;57757;53.198;19.646;2023-01-27T05:48:59;100722.21;;;1.93;77.27
70338;BME280;57757;53.198;19.646;2023-01-27T05:51:29;100722.89;;;1.93;77.33
70338;BME280;57757;53.198;19.646;2023-01-27T05:53:57;100721.73;;;1.94;77.20
70338;BME280;57757;53.198;19.646;2023-01-27T05:56:25;100723.27;;;1.94;77.34
70338;BME280;57757;53.198;19.646;2023-01-27T05:58:54;100726.69;;;1.94;77.31
70338;BME280;57757;53.198;19.646;2023-01-27T06:01:25;100726.88;;;1.95;77.35
70338;BME280;57757;53.198;19.646;2023-01-27T06:03:53;100733.10;;;1.97;77.29
70338;BME280;57757;53.198;19.646;2023-01-27T06:06:23;100736.70;;;1.98;77.45
70338;BME280;57757;53.198;19.646;2023-01-27T06:08:51;100735.88;;;1.99;77.29
70338;BME280;57757;53.198;19.646;2023-01-27T06:11:20;100735.56;;;2.00;77.44
70338;BME280;57757;53.198;19.646;2023-01-27T06:13:49;100736.96;;;2.02;77.44
70338;BME280;57757;53.198;19.646;2023-01-27T06:16:18;100737.00;;;2.03;77.39
70338;BME280;57757;53.198;19.646;2023-01-27T06:18:47;100740.59;;;2.04;77.49
70338;BME280;57757;53.198;19.646;2023-01-27T06:21:16;100741.32;;;2.06;77.38
70338;BME280;57757;53.198;19.646;2023-01-27T06:23:44;100739.58;;;2.04;77.28
70338;BME280;57757;53.198;19.646;2023-01-27T06:26:14;100740.25;;;2.03;77.33
70338;BME280;57757;53.198;19.646;2023-01-27T06:28:45;100740.11;;;2.05;77.47
70338;BME280;57757;53.198;19.646;2023-01-27T06:31:18;100744.73;;;2.05;77.28
70338;BME280;57757;53.198;19.646;2023-01-27T06:33:49;100749.17;;;2.04;77.34
70338;BME280;57757;53.198;19.646;2023-01-27T06:36:19;100744.70;;;2.02;77.41
70338;BME280;57757;53.198;19.646;2023-01-27T06:38:48;100741.45;;;2.03;77.35
70338;BME280;57757;53.198;19.646;2023-01-27T06:41:17;100743.69;;;2.04;77.43
70338;BME280;57757;53.198;19.646;2023-01-27T06:43:45;100745.23;;;2.03;77.33
70338;BME280;57757;53.198;19.646;2023-01-27T06:46:14;100748.84;;;2.04;77.41
70338;BME280;57757;53.198;19.646;2023-01-27T06:48:42;100752.81;;;2.05;77.45
70338;BME280;57757;53.198;19.646;2023-01-27T06:51:10;100755.94;;;2.07;77.46
70338;BME280;57757;53.198;19.646;2023-01-27T06:53:37;100759.38;;;2.08;77.38
70338;BME280;57757;53.198;19.646;2023-01-27T06:56:05;100762.33;;;2.09;77.43
70338;BME280;57757;53.198;19.646;2023-01-27T06:58:34;100764.42;;;2.11;77.42
70338;BME280;57757;53.198;19.646;2023-01-27T07:01:05;100768.71;;;2.11;77.28
70338;BME280;57757;53.198;19.646;2023-01-27T07:03:33;100769.06;;;2.11;77.43
70338;BME280;57757;53.198;19.646;2023-01-27T07:06:02;100770.77;;;2.11;77.28
70338;BME280;57757;53.198;19.646;2023-01-27T07:08:31;100772.13;;;2.10;77.35
70338;BME280;57757;53.198;19.646;2023-01-27T07:11:02;100772.81;;;2.10;77.30
70338;BME280;57757;53.198;19.646;2023-01-27T07:13:31;100773.17;;;2.10;77.26
70338;BME280;57757;53.198;19.646;2023-01-27T07:15:58;100771.80;;;2.11;77.23
70338;BME280;57757;53.198;19.646;2023-01-27T07:18:27;100774.72;;;2.11;77.14
70338;BME280;57757;53.198;19.646;2023-01-27T07:20:54;100773.54;;;2.12;77.17
70338;BME280;57757;53.198;19.646;2023-01-27T07:23:22;100778.73;;;2.14;77.32
70338;BME280;57757;53.198;19.646;2023-01-27T07:25:50;100779.61;;;2.15;77.22
70338;BME280;57757;53.198;19.646;2023-01-27T07:28:17;100779.79;;;2.16;77.20
70338;BME280;57757;53.198;19.646;2023-01-27T07:30:45;100782.75;;;2.18;77.28
70338;BME280;57757;53.198;19.646;2023-01-27T07:33:13;100787.25;;;2.20;77.33
70338;BME280;57757;53.198;19.646;2023-01-27T07:35:41;100788.84;;;2.22;77.31
70338;BME280;57757;53.198;19.646;2023-01-27T07:38:09;100792.48;;;2.24;77.38
70338;BME280;57757;53.198;19.646;2023-01-27T07:40:37;100790.26;;;2.24;77.27
70338;BME280;57757;53.198;19.646;2023-01-27T07:43:05;100789.10;;;2.26;77.31
70338;BME280;57757;53.198;19.646;2023-01-27T07:45:33;100791.74;;;2.30;77.31
70338;BME280;57757;53.198;19.646;2023-01-27T07:48:07;100793.46;;;2.30;77.37
70338;BME280;57757;53.198;19.646;2023-01-27T07:50:38;100791.80;;;2.33;77.22
70338;BME280;57757;53.198;19.646;2023-01-27T07:53:07;100793.38;;;2.34;77.26
70338;BME280;57757;53.198;19.646;2023-01-27T07:55:35;100794.43;;;2.36;77.13
70338;BME280;57757;53.198;19.646;2023-01-27T07:58:03;100798.79;;;2.39;77.18
70338;BME280;57757;53.198;19.646;2023-01-27T08:00:31;100800.02;;;2.41;77.17
70338;BME280;57757;53.198;19.646;2023-01-27T08:03:01;100795.11;;;2.45;77.12
70338;BME280;57757;53.198;19.646;2023-01-27T08:05:32;100793.98;;;2.49;77.25
70338;BME280;57757;53.198;19.646;2023-01-27T08:08:00;100789.42;;;2.53;77.16
70338;BME280;57757;53.198;19.646;2023-01-27T08:10:31;100790.02;;;2.56;77.28
70338;BME280;57757;53.198;19.646;2023-01-27T08:12:58;100791.64;;;2.61;77.12
70338;BME280;57757;53.198;19.646;2023-01-27T08:15:26;100791.54;;;2.65;77.18
70338;BME280;57757;53.198;19.646;2023-01-27T08:17:55;100787.27;;;2.66;77.08
70338;BME280;57757;53.198;19.646;2023-01-27T08:20:25;100789.73;;;2.69;77.08
70338;BME280;57757;53.198;19.646;2023-01-27T08:22:54;100791.86;;;2.73;77.02
70338;BME280;57757;53.198;19.646;2023-01-27T08:25:22;100792.10;;;2.77;77.06
70338;BME280;57757;53.198;19.646;2023-01-27T08:27:52;100797.32;;;2.80;77.18
70338;BME280;57757;53.198;19.646;2023-01-27T08:30:21;100794.98;;;2.84;77.15
70338;BME280;57757;53.198;19.646;2023-01-27T08:32:49;100796.93;;;2.87;77.07
70338;BME280;57757;53.198;19.646;2023-01-27T08:35:17;100798.02;;;2.91;77.04
70338;BME280;57757;53.198;19.646;2023-01-27T08:37:46;100804.59;;;2.94;77.11
70338;BME280;57757;53.198;19.646;2023-01-27T08:40:16;100813.07;;;2.97;77.11
70338;BME280;57757;53.198;19.646;2023-01-27T08:42:44;100816.01;;;2.98;76.81
70338;BME280;57757;53.198;19.646;2023-01-27T08:45:12;100819.45;;;2.99;76.93
70338;BME280;57757;53.198;19.646;2023-01-27T08:47:40;100820.00;;;3.01;76.79
70338;BME280;57757;53.198;19.646;2023-01-27T08:50:08;100828.80;;;3.03;76.90
70338;BME280;57757;53.198;19.646;2023-01-27T08:52:37;100832.27;;;3.04;76.82
70338;BME280;57757;53.198;19.646;2023-01-27T08:55:05;100832.89;;;3.10;77.42
70338;BME280;57757;53.198;19.646;2023-01-27T08:57:32;100831.17;;;3.21;77.02
70338;BME280;57757;53.198;19.646;2023-01-27T09:00:04;100832.58;;;3.23;76.77
70338;BME280;57757;53.198;19.646;2023-01-27T09:02:33;100833.46;;;3.24;76.75
70338;BME280;57757;53.198;19.646;2023-01-27T09:05:01;100837.83;;;3.28;76.84
70338;BME280;57757;53.198;19.646;2023-01-27T09:07:28;100839.61;;;3.32;76.92
70338;BME280;57757;53.198;19.646;2023-01-27T09:09:56;100841.86;;;3.33;76.91
70338;BME280;57757;53.198;19.646;2023-01-27T09:12:41;100842.61;;;3.37;76.87
70338;BME280;57757;53.198;19.646;2023-01-27T09:15:11;100845.94;;;3.40;76.91
70338;BME280;57757;53.198;19.646;2023-01-27T09:17:39;100850.10;;;3.43;76.79
70338;BME280;57757;53.198;19.646;2023-01-27T09:20:08;100846.87;;;3.45;76.79
70338;BME280;57757;53.198;19.646;2023-01-27T09:22:38;100850.48;;;3.45;76.70
70338;BME280;57757;53.198;19.646;2023-01-27T09:25:08;100853.89;;;3.43;76.76
70338;BME280;57757;53.198;19.646;2023-01-27T09:27:38;100856.09;;;3.42;76.65
70338;BME280;57757;53.198;19.646;2023-01-27T09:30:08;100857.81;;;3.42;76.67
70338;BME280;57757;53.198;19.646;2023-01-27T09:32:36;100859.02;;;3.41;76.53
70338;BME280;57757;53.198;19.646;2023-01-27T09:35:05;100860.05;;;3.41;76.45
70338;BME280;57757;53.198;19.646;2023-01-27T09:37:54;100857.13;;;3.42;76.50
70338;BME280;57757;53.198;19.646;2023-01-27T09:40:32;100858.75;;;3.46;76.66
70338;BME280;57757;53.198;19.646;2023-01-27T10:07:02;100852.05;;;3.68;75.54
70338;BME280;57757;53.198;19.646;2023-01-27T10:09:18;100857.39;;;3.69;75.63
70338;BME280;57757;53.198;19.646;2023-01-27T10:19:58;100865.84;;;3.94;76.11
70338;BME280;57757;53.198;19.646;2023-01-27T10:28:14;100869.39;;;3.89;75.96
70338;BME280;57757;53.198;19.646;2023-01-27T10:33:50;100867.05;;;3.82;76.07
70338;BME280;57757;53.198;19.646;2023-01-27T10:36:30;100866.63;;;3.77;75.92
70338;BME280;57757;53.198;19.646;2023-01-27T10:47:37;100874.02;;;3.44;75.79
70338;BME280;57757;53.198;19.646;2023-01-27T10:50:14;100878.90;;;3.37;75.74
70338;BME280;57757;53.198;19.646;2023-01-27T10:52:47;100875.95;;;3.36;75.88
70338;BME280;57757;53.198;19.646;2023-01-27T10:55:24;100877.45;;;3.34;75.81
70338;BME280;57757;53.198;19.646;2023-01-27T10:58:00;100878.13;;;3.32;75.84
70338;BME280;57757;53.198;19.646;2023-01-27T11:03:39;100879.02;;;3.24;75.72
70338;BME280;57757;53.198;19.646;2023-01-27T11:06:14;100879.96;;;3.19;75.62
70338;BME280;57757;53.198;19.646;2023-01-27T11:08:49;100879.70;;;3.14;75.65
70338;BME280;57757;53.198;19.646;2023-01-27T11:11:20;100881.34;;;3.10;75.73
70338;BME280;57757;53.198;19.646;2023-01-27T11:16:47;100877.06;;;3.11;75.90
70338;BME280;57757;53.198;19.646;2023-01-27T11:22:05;100872.78;;;3.12;75.97
70338;BME280;57757;53.198;19.646;2023-01-27T11:24:44;100868.23;;;3.17;76.11
70338;BME280;57757;53.198;19.646;2023-01-27T11:28:13;100870.02;;;3.21;76.10
70338;BME280;57757;53.198;19.646;2023-01-27T11:30:26;100869.35;;;3.22;76.11
70338;BME280;57757;53.198;19.646;2023-01-27T11:35:43;100870.03;;;3.31;76.11
70338;BME280;57757;53.198;19.646;2023-01-27T11:38:18;100871.27;;;3.34;76.03
70338;BME280;57757;53.198;19.646;2023-01-27T11:40:47;100873.58;;;3.38;76.00
70338;BME280;57757;53.198;19.646;2023-01-27T11:43:23;100878.25;;;3.40;75.87
70338;BME280;57757;53.198;19.646;2023-01-27T11:45:59;100875.44;;;3.36;75.72
70338;BME280;57757;53.198;19.646;2023-01-27T11:48:36;100875.72;;;3.32;75.59
70338;BME280;57757;53.198;19.646;2023-01-27T11:51:13;100873.61;;;3.30;75.97
70338;BME280;57757;53.198;19.646;2023-01-27T11:53:49;100870.11;;;3.26;75.79
70338;BME280;57757;53.198;19.646;2023-01-27T11:56:18;100871.95;;;3.23;75.93
70338;BME280;57757;53.198;19.646;2023-01-27T11:59:04;100869.70;;;3.22;76.09
70338;BME280;57757;53.198;19.646;2023-01-27T12:04:23;100865.69;;;3.19;75.91
70338;BME280;57757;53.198;19.646;2023-01-27T12:07:01;100867.73;;;3.19;75.98
70338;BME280;57757;53.198;19.646;2023-01-27T12:14:51;100861.88;;;3.07;75.97
70338;BME280;57757;53.198;19.646;2023-01-27T12:17:36;100864.41;;;3.05;75.94
70338;BME280;57757;53.198;19.646;2023-01-27T12:20:24;100861.97;;;3.03;76.15
70338;BME280;57757;53.198;19.646;2023-01-27T12:22:55;100862.81;;;3.02;76.06
70338;BME280;57757;53.198;19.646;2023-01-27T12:25:28;100862.80;;;3.01;76.00
70338;BME280;57757;53.198;19.646;2023-01-27T12:28:02;100858.65;;;3.00;76.09
70338;BME280;57757;53.198;19.646;2023-01-27T12:30:32;100861.05;;;3.00;76.09
70338;BME280;57757;53.198;19.646;2023-01-27T12:33:11;100858.08;;;2.96;75.91
70338;BME280;57757;53.198;19.646;2023-01-27T12:35:39;100862.27;;;2.90;76.03
70338;BME280;57757;53.198;19.646;2023-01-27T12:38:24;100870.91;;;2.84;75.61
70338;BME280;57757;53.198;19.646;2023-01-27T12:41:00;100870.75;;;2.76;75.65
70338;BME280;57757;53.198;19.646;2023-01-27T12:43:29;100869.65;;;2.72;75.71
70338;BME280;57757;53.198;19.646;2023-01-27T12:48:48;100867.30;;;2.66;75.66
70338;BME280;57757;53.198;19.646;2023-01-27T12:52:00;100861.91;;;2.63;75.97
70338;BME280;57757;53.198;19.646;2023-01-27T12:54:27;100862.63;;;2.65;75.92
70338;BME280;57757;53.198;19.646;2023-01-27T12:57:00;100862.64;;;2.65;75.86
70338;BME280;57757;53.198;19.646;2023-01-27T12:59:29;100860.34;;;2.70;75.93
70338;BME280;57757;53.198;19.646;2023-01-27T13:04:25;100872.44;;;2.74;75.74
70338;BME280;57757;53.198;19.646;2023-01-27T13:07:12;100872.35;;;2.70;75.67
70338;BME280;57757;53.198;19.646;2023-01-27T13:12:24;100876.73;;;2.65;75.91
70338;BME280;57757;53.198;19.646;2023-01-27T13:15:07;100872.18;;;2.70;75.96
70338;BME280;57757;53.198;19.646;2023-01-27T13:17:45;100871.38;;;2.72;75.78
70338;BME280;57757;53.198;19.646;2023-01-27T13:25:49;100880.61;;;2.71;75.92
70338;BME280;57757;53.198;19.646;2023-01-27T13:28:30;100878.84;;;2.68;75.78
70338;BME280;57757;53.198;19.646;2023-01-27T13:34:15;100883.68;;;2.62;75.94
70338;BME280;57757;53.198;19.646;2023-01-27T13:40:00;100889.51;;;2.61;75.97
70338;BME280;57757;53.198;19.646;2023-01-27T13:45:37;100891.86;;;2.59;75.97
70338;BME280;57757;53.198;19.646;2023-01-27T13:48:13;100892.36;;;2.57;75.93
70338;BME280;57757;53.198;19.646;2023-01-27T13:53:45;100904.29;;;2.53;75.91
70338;BME280;57757;53.198;19.646;2023-01-27T13:59:04;100907.80;;;2.49;75.81
70338;BME280;57757;53.198;19.646;2023-01-27T14:11:11;100912.81;;;2.42;75.84
70338;BME280;57757;53.198;19.646;2023-01-27T14:15:59;100921.20;;;2.40;75.95
70338;BME280;57757;53.198;19.646;2023-01-27T14:18:35;100926.35;;;2.40;75.81
70338;BME280;57757;53.198;19.646;2023-01-27T14:23:49;100925.98;;;2.39;76.01
70338;BME280;57757;53.198;19.646;2023-01-27T14:38:28;100927.30;;;2.36;75.97
70338;BME280;57757;53.198;19.646;2023-01-27T14:58:34;100926.77;;;2.28;75.90
70338;BME280;57757;53.198;19.646;2023-01-27T15:03:43;100930.63;;;2.24;75.82
70338;BME280;57757;53.198;19.646;2023-01-27T15:06:42;100929.73;;;2.23;75.91
70338;BME280;57757;53.198;19.646;2023-01-27T15:28:00;100942.05;;;2.20;75.92
70338;BME280;57757;53.198;19.646;2023-01-27T15:30:34;100945.81;;;2.20;75.84
70338;BME280;57757;53.198;19.646;2023-01-27T15:39:18;100944.60;;;2.12;75.76
70338;BME280;57757;53.198;19.646;2023-01-27T15:47:33;100948.70;;;2.03;75.64
70338;BME280;57757;53.198;19.646;2023-01-27T15:52:35;100957.33;;;1.99;75.81
70338;BME280;57757;53.198;19.646;2023-01-27T15:55:28;100952.61;;;1.95;75.82
70338;BME280;57757;53.198;19.646;2023-01-27T15:58:49;100954.45;;;1.93;75.65
70338;BME280;57757;53.198;19.646;2023-01-27T16:00:52;100961.61;;;1.91;75.82
70338;BME280;57757;53.198;19.646;2023-01-27T16:03:28;100962.39;;;1.88;75.82
70338;BME280;57757;53.198;19.646;2023-01-27T16:06:03;100965.98;;;1.87;75.81
70338;BME280;57757;53.198;19.646;2023-01-27T16:08:58;100968.03;;;1.87;75.87
70338;BME280;57757;53.198;19.646;2023-01-27T16:22:56;100974.77;;;1.82;75.75
70338;BME280;57757;53.198;19.646;2023-01-27T16:25:29;100971.16;;;1.82;75.76
70338;BME280;57757;53.198;19.646;2023-01-27T16:28:17;100969.41;;;1.81;75.66
70338;BME280;57757;53.198;19.646;2023-01-27T16:31:10;100974.62;;;1.76;75.56